Time;durP1;ratioP1;P1;durP2;ratioP2;P2;SDS_P1;SDS_P2;PMS_P1;PMS_P2;Temp;Humidity;BMP_temperature;BMP_pressure;BME280_temperature;BME280_humidity;BME280_pressure;Samples;Min_cycle;Max_cycle;Signal;HPM_P1;HPM_P2
2022/06/03 00:02:33;;;;;;;7.50;4.63;;;11.00;99.90;;;;;;4997161;28;20045;-65
2022/06/03 00:05:17;;;;;;;7.90;4.00;;;11.00;99.90;;;;;;5028505;28;20055;-65
2022/06/03 00:08:02;;;;;;;6.90;4.30;;;10.80;99.90;;;;;;5041970;28;20077;-65
2022/06/03 00:10:33;;;;;;;7.45;4.03;;;10.90;99.90;;;;;;5059958;28;20430;-64
2022/06/03 00:13:17;;;;;;;6.15;4.25;;;10.80;99.90;;;;;;5043382;28;20068;-65
2022/06/03 00:16:01;;;;;;;8.38;4.28;;;10.70;99.90;;;;;;5041750;28;20042;-65
2022/06/03 00:18:48;;;;;;;5.63;4.18;;;10.80;99.90;;;;;;5024953;28;20051;-65
2022/06/03 00:21:47;;;;;;;7.10;4.63;;;10.80;99.90;;;;;;5060179;28;20040;-64
2022/06/03 00:24:42;;;;;;;6.90;4.43;;;10.60;99.90;;;;;;5049043;28;20041;-64
2022/06/03 00:27:45;;;;;;;4.90;3.88;;;10.60;99.90;;;;;;5034854;28;20056;-64
2022/06/03 00:30:22;;;;;;;6.68;3.50;;;10.60;99.90;;;;;;5043594;28;20036;-64
2022/06/03 00:33:00;;;;;;;6.60;4.40;;;10.60;99.90;;;;;;5025833;28;20040;-64
2022/06/03 00:35:50;;;;;;;7.85;5.20;;;10.50;99.90;;;;;;5042714;28;20060;-64
2022/06/03 00:38:31;;;;;;;7.00;4.22;;;10.40;99.90;;;;;;5043090;28;20044;-64
2022/06/03 00:41:05;;;;;;;8.38;4.43;;;10.80;99.90;;;;;;5023086;28;20061;-65
2022/06/03 00:43:46;;;;;;;6.95;4.53;;;10.60;99.90;;;;;;5049807;28;20052;-64
2022/06/03 00:46:23;;;;;;;6.38;4.32;;;10.60;99.90;;;;;;5047242;28;20108;-65
2022/06/03 00:49:09;;;;;;;8.25;4.10;;;10.80;99.90;;;;;;5058569;28;20033;-64
2022/06/03 00:52:12;;;;;;;7.15;4.28;;;10.70;99.90;;;;;;5031121;28;20356;-63
2022/06/03 00:55:03;;;;;;;8.57;4.05;;;10.40;99.90;;;;;;5026792;28;20040;-65
2022/06/03 00:57:52;;;;;;;6.22;4.13;;;10.50;99.90;;;;;;5028251;28;20061;-64
2022/06/03 01:00:26;;;;;;;10.52;4.97;;;10.40;99.90;;;;;;5047228;28;20041;-64
2022/06/03 01:03:10;;;;;;;4.93;4.28;;;10.30;99.90;;;;;;5047375;28;20037;-65
2022/06/03 01:05:41;;;;;;;7.97;4.35;;;10.40;99.90;;;;;;5064548;28;20044;-64
2022/06/03 01:08:30;;;;;;;9.43;4.32;;;10.50;99.90;;;;;;5046069;28;20040;-64
2022/06/03 01:11:14;;;;;;;5.35;4.30;;;10.50;99.90;;;;;;5064351;28;20040;-64
2022/06/03 01:14:11;;;;;;;9.10;4.70;;;10.40;99.90;;;;;;5053660;28;20045;-64
2022/06/03 01:16:57;;;;;;;6.00;4.85;;;10.30;99.90;;;;;;5044739;28;20037;-64
2022/06/03 01:19:57;;;;;;;8.57;4.45;;;10.30;99.90;;;;;;5044593;28;20045;-65
2022/06/03 01:23:00;;;;;;;6.93;4.43;;;10.40;99.90;;;;;;5014666;28;20064;-65
2022/06/03 01:26:08;;;;;;;10.13;5.28;;;10.40;99.90;;;;;;5045622;28;20041;-63
2022/06/03 01:28:34;;;;;;;6.22;4.57;;;;;;;;;;5046639;28;20486;-64
2022/06/03 01:31:37;;;;;;;10.43;4.85;;;10.10;99.90;;;;;;5064122;28;20052;-65
2022/06/03 01:34:21;;;;;;;8.43;4.90;;;10.10;99.90;;;;;;5063836;28;20040;-65
2022/06/03 01:37:25;;;;;;;7.63;4.55;;;10.20;99.90;;;;;;5064484;28;20380;-64
2022/06/03 01:40:18;;;;;;;7.35;4.75;;;10.20;99.90;;;;;;5052842;28;20128;-65
2022/06/03 01:43:14;;;;;;;7.85;4.85;;;10.10;99.90;;;;;;5044964;28;20033;-65
2022/06/03 01:46:03;;;;;;;8.73;4.63;;;10.10;99.90;;;;;;5041724;28;20037;-65
2022/06/03 01:48:56;;;;;;;9.18;4.78;;;10.10;99.90;;;;;;5046308;28;20071;-64
2022/06/03 01:51:40;;;;;;;8.23;4.75;;;10.00;99.90;;;;;;5053050;28;20040;-63
2022/06/03 01:54:40;;;;;;;6.68;4.90;;;10.20;99.90;;;;;;5063277;28;20075;-64
2022/06/03 01:57:30;;;;;;;7.53;4.45;;;10.00;99.90;;;;;;5063632;28;20056;-65
2022/06/03 02:00:44;;;;;;;7.03;4.97;;;10.00;99.90;;;;;;5052890;28;20079;-64
2022/06/03 02:03:47;;;;;;;9.45;4.70;;;10.30;99.90;;;;;;5066315;28;20044;-65
2022/06/03 02:07:00;;;;;;;8.07;4.80;;;10.10;99.90;;;;;;5066130;28;20025;-65
2022/06/03 02:09:52;;;;;;;7.72;5.13;;;9.80;99.90;;;;;;5065969;28;20072;-64
2022/06/03 02:12:18;;;;;;;12.30;4.93;;;;;;;;;;5048860;28;20059;-64
2022/06/03 02:14:47;;;;;;;8.05;5.00;;;9.90;99.90;;;;;;5049326;28;20124;-64
2022/06/03 02:17:18;;;;;;;10.52;5.88;;;9.90;99.90;;;;;;5066525;28;20097;-64
2022/06/03 02:20:08;;;;;;;7.75;4.50;;;9.90;99.90;;;;;;5066720;28;20041;-65
2022/06/03 02:22:49;;;;;;;8.18;5.57;;;;;;;;;;5053826;28;20029;-64
2022/06/03 02:25:15;;;;;;;11.70;5.30;;;;;;;;;;5065792;28;20047;-65
2022/06/03 02:27:44;;;;;;;10.45;5.53;;;9.90;99.90;;;;;;5065884;28;20037;-64
2022/06/03 02:30:46;;;;;;;7.45;5.20;;;10.10;99.90;;;;;;5048765;28;20051;-63
2022/06/03 02:33:33;;;;;;;6.30;4.72;;;9.90;99.90;;;;;;5066727;28;20037;-64
2022/06/03 02:36:42;;;;;;;7.90;5.10;;;9.90;99.90;;;;;;5051856;28;20044;-64
2022/06/03 02:39:19;;;;;;;9.52;5.00;;;9.90;99.90;;;;;;5065850;28;20139;-65
2022/06/03 02:41:54;;;;;;;7.18;5.45;;;9.80;99.90;;;;;;5047310;28;20041;-64
2022/06/03 02:44:44;;;;;;;8.77;5.47;;;9.70;99.90;;;;;;5066576;28;20032;-64
2022/06/03 02:47:31;;;;;;;7.30;4.78;;;9.80;99.90;;;;;;5060026;28;20041;-65
2022/06/03 02:50:10;;;;;;;7.57;5.10;;;;;;;;;;5062032;28;20395;-64
2022/06/03 02:52:48;;;;;;;8.85;5.25;;;9.70;99.90;;;;;;5045594;28;20044;-65
2022/06/03 02:55:53;;;;;;;8.55;5.55;;;9.70;99.90;;;;;;5062225;28;20041;-65
2022/06/03 02:58:51;;;;;;;8.50;5.43;;;9.70;99.90;;;;;;5016411;28;20052;-64
2022/06/03 03:01:34;;;;;;;8.38;5.20;;;9.80;99.90;;;;;;5028685;28;20124;-64
2022/06/03 03:04:00;;;;;;;9.63;6.07;;;;;;;;;;5024595;28;20057;-65
2022/06/03 03:06:40;;;;;;;8.70;5.68;;;9.70;99.90;;;;;;5038977;28;20056;-64
2022/06/03 03:09:22;;;;;;;8.13;5.13;;;9.70;99.90;;;;;;5043161;28;20119;-64
2022/06/03 03:12:35;;;;;;;8.63;5.57;;;9.90;99.90;;;;;;5040103;28;20038;-64
2022/06/03 03:15:12;;;;;;;9.18;6.20;;;9.60;99.90;;;;;;4971344;28;20060;-64
2022/06/03 03:17:38;;;;;;;6.68;4.53;;;;;;;;;;5035687;28;20460;-64
2022/06/03 03:20:16;;;;;;;11.73;5.15;;;9.70;99.90;;;;;;5006653;28;20060;-65
2022/06/03 03:23:00;;;;;;;8.07;5.60;;;;;;;;;;5049837;28;20088;-65
2022/06/03 03:25:50;;;;;;;8.50;5.78;;;9.80;99.90;;;;;;5044037;28;20115;-65
2022/06/03 03:28:25;;;;;;;7.90;5.70;;;;;;;;;;5026614;28;20403;-64
2022/06/03 03:31:06;;;;;;;;;;;9.80;99.90;;;;;;5042429;28;20045;-64
2022/06/03 03:33:52;;;;;;;13.52;6.65;;;9.80;99.90;;;;;;5042514;28;19917;-65
2022/06/03 03:36:18;;;;;;;11.35;6.65;;;;;;;;;;5041481;28;20041;-64
2022/06/03 03:38:56;;;;;;;11.70;5.63;;;9.80;99.90;;;;;;5023893;28;20052;-64
2022/06/03 03:41:39;;;;;;;9.68;5.80;;;9.80;99.90;;;;;;5050411;28;20036;-65
2022/06/03 03:44:43;;;;;;;9.57;5.72;;;10.00;99.90;;;;;;5043380;28;20059;-65
2022/06/03 03:47:34;;;;;;;9.00;5.88;;;10.10;99.90;;;;;;5054630;28;20044;-64
2022/06/03 03:50:37;;;;;;;7.07;5.45;;;10.00;99.90;;;;;;5034666;28;20128;-63
2022/06/03 03:53:52;;;;;;;7.90;5.22;;;10.00;99.90;;;;;;5038107;28;20103;-64
2022/06/03 03:56:45;;;;;;;8.70;4.78;;;10.20;99.90;;;;;;5029945;28;20087;-63
2022/06/03 03:59:40;;;;;;;7.60;5.57;;;10.10;99.90;;;;;;5030572;28;20052;-63
2022/06/03 04:02:48;;;;;;;8.90;6.45;;;10.20;99.90;;;;;;5000765;28;20053;-63
2022/06/03 04:05:19;;;;;;;6.88;5.00;;;10.10;99.90;;;;;;5019301;28;20087;-63
2022/06/03 04:08:14;;;;;;;10.32;5.78;;;10.40;99.90;;;;;;5031582;28;20049;-64
2022/06/03 04:11:19;;;;;;;8.27;5.40;;;10.20;99.90;;;;;;5011514;28;20128;-63
2022/06/03 04:14:15;;;;;;;15.23;5.70;;;10.10;99.90;;;;;;5012357;28;20209;-63
2022/06/03 04:17:25;;;;;;;6.85;5.60;;;10.00;99.90;;;;;;5011078;28;20133;-64
2022/06/03 04:20:28;;;;;;;8.63;5.70;;;10.40;99.90;;;;;;5012766;28;20037;-65
2022/06/03 04:23:15;;;;;;;8.80;5.60;;;10.30;99.90;;;;;;5021880;28;20137;-65
2022/06/03 04:26:24;;;;;;;10.63;5.80;;;10.20;99.90;;;;;;5016819;28;20045;-64
2022/06/03 04:29:35;;;;;;;11.07;5.65;;;10.50;99.90;;;;;;5023969;28;20057;-65
2022/06/03 04:32:04;;;;;;;8.35;5.93;;;10.40;99.90;;;;;;5006233;28;20407;-65
2022/06/03 04:34:41;;;;;;;10.93;6.05;;;10.40;99.90;;;;;;5016024;28;20037;-64
2022/06/03 04:37:07;;;;;;;8.48;5.70;;;;;;;;;;5027506;28;20493;-64
2022/06/03 04:39:33;;;;;;;7.47;5.68;;;;;;;;;;5025858;28;20068;-64
2022/06/03 04:42:17;;;;;;;8.75;5.40;;;10.50;99.90;;;;;;5025948;28;20164;-65
2022/06/03 04:45:13;;;;;;;10.38;6.22;;;10.70;99.90;;;;;;5027288;28;20160;-65
2022/06/03 04:48:04;;;;;;;8.98;6.28;;;10.80;99.90;;;;;;5021935;28;20056;-64
2022/06/03 04:51:07;;;;;;;10.07;6.00;;;11.10;99.90;;;;;;5025685;28;20050;-64
2022/06/03 04:53:50;;;;;;;7.32;5.88;;;11.30;99.90;;;;;;5020851;28;20107;-65
2022/06/03 04:56:38;;;;;;;7.95;6.00;;;11.40;99.90;;;;;;5023196;28;20081;-65
2022/06/03 04:59:04;;;;;;;9.20;6.32;;;;;;;;;;5013664;28;20156;-65
2022/06/03 05:02:15;;;;;;;5.95;4.93;;;12.40;99.90;;;;;;5010955;28;20041;-64
2022/06/03 05:05:03;;;;;;;7.20;4.90;;;13.20;99.90;;;;;;5012471;28;20045;-64
2022/06/03 05:07:58;;;;;;;6.80;5.28;;;13.70;99.90;;;;;;5025120;28;20411;-65
2022/06/03 05:11:17;;;;;;;6.38;4.10;;;14.20;99.90;;;;;;5027984;28;20045;-64
2022/06/03 05:13:43;;;;;;;6.88;4.35;;;;;;;;;;5030015;28;20045;-64
2022/06/03 05:17:26;;;;;;;6.97;3.78;;;14.90;99.90;;;;;;5031940;28;20357;-64
2022/06/03 05:20:10;;;;;;;8.48;4.22;;;15.40;99.90;;;;;;4898399;29;20049;-65
2022/06/03 05:22:47;;;;;;;6.32;3.35;;;15.40;99.90;;;;;;4902044;29;20048;-64
2022/06/03 05:25:31;;;;;;;6.20;3.13;;;15.00;99.90;;;;;;4969507;28;20041;-66
2022/06/03 05:27:59;;;;;;;4.95;3.67;;;14.40;99.90;;;;;;5027787;28;20484;-66
2022/06/03 05:30:34;;;;;;;8.48;4.00;;;14.30;99.90;;;;;;5008478;28;20042;-66
2022/06/03 05:33:40;;;;;;;7.57;4.00;;;14.60;99.90;;;;;;5030399;28;20387;-66
2022/06/03 05:36:20;;;;;;;6.88;3.08;;;15.00;99.90;;;;;;5022413;28;20052;-66
2022/06/03 05:38:52;;;;;;;5.22;3.10;;;15.60;99.90;;;;;;5025418;28;20041;-66
2022/06/03 05:44:54;;;;;;;6.15;3.35;;;16.30;99.90;;;;;;5016232;28;20041;-66
2022/06/03 05:47:28;;;;;;;5.15;2.58;;;16.50;99.90;;;;;;5014022;28;20057;-66
2022/06/03 05:50:11;;;;;;;3.45;2.47;;;16.40;99.90;;;;;;5012418;28;20041;-66
2022/06/03 05:52:48;;;;;;;3.58;2.50;;;16.30;99.90;;;;;;5014328;28;20555;-66
2022/06/03 05:55:47;;;;;;;5.80;2.20;;;16.30;99.90;;;;;;5031001;28;20116;-67
2022/06/03 05:58:39;;;;;;;5.30;2.30;;;16.40;99.90;;;;;;5013373;28;20037;-66
2022/06/03 06:01:19;;;;;;;2.58;1.90;;;16.40;99.90;;;;;;5035149;28;20041;-67
2022/06/03 06:04:12;;;;;;;6.18;2.25;;;16.80;99.90;;;;;;5033982;28;20043;-67
2022/06/03 06:07:04;;;;;;;2.75;1.80;;;16.60;99.90;;;;;;5038322;28;20179;-67
2022/06/03 06:09:46;;;;;;;6.40;2.30;;;16.60;99.90;;;;;;5036069;28;20074;-67
2022/06/03 06:12:34;;;;;;;3.33;1.70;;;16.30;99.90;;;;;;5016609;28;20099;-66
2022/06/03 06:15:30;;;;;;;4.07;1.35;;;16.60;99.90;;;;;;5035001;28;20049;-66
2022/06/03 06:18:03;;;;;;;3.28;1.13;;;16.50;99.90;;;;;;5034946;28;20132;-66
2022/06/03 06:20:38;;;;;;;3.10;1.33;;;16.40;99.90;;;;;;5035501;28;20172;-67
2022/06/03 06:23:38;;;;;;;3.78;1.00;;;18.40;99.90;;;;;;5017912;28;20059;-67
2022/06/03 06:26:22;;;;;;;4.40;1.20;;;17.00;99.90;;;;;;5010978;28;20527;-67
2022/06/03 06:29:25;;;;;;;2.77;1.33;;;16.90;99.90;;;;;;5016950;28;20154;-66
2022/06/03 06:32:22;;;;;;;4.15;1.45;;;16.80;99.90;;;;;;5015965;28;20108;-67
2022/06/03 06:35:09;;;;;;;5.13;1.50;;;17.20;99.90;;;;;;5017380;28;20053;-67
2022/06/03 06:37:37;;;;;;;3.03;1.20;;;17.40;99.90;;;;;;5016448;28;20053;-67
2022/06/03 06:40:16;;;;;;;4.25;1.20;;;17.90;99.90;;;;;;5017119;28;20083;-67
2022/06/03 06:42:59;;;;;;;3.65;1.20;;;16.90;99.90;;;;;;5016815;28;20059;-66
2022/06/03 06:45:42;;;;;;;3.28;0.95;;;17.60;99.90;;;;;;5034795;28;20048;-67
2022/06/03 06:48:19;;;;;;;2.13;1.10;;;17.00;99.90;;;;;;5034480;28;20136;-67
2022/06/03 06:51:09;;;;;;;7.20;1.40;;;16.40;99.90;;;;;;5015755;28;20172;-67
2022/06/03 06:53:40;;;;;;;3.55;1.33;;;16.50;99.90;;;;;;5017688;28;20410;-67
2022/06/03 06:56:38;;;;;;;3.80;1.52;;;17.40;99.90;;;;;;5017423;28;20056;-66
2022/06/03 06:59:10;;;;;;;3.13;1.20;;;16.60;99.90;;;;;;5016194;28;20044;-66
2022/06/03 07:01:45;;;;;;;2.00;1.20;;;16.70;99.90;;;;;;5014724;28;20049;-66
2022/06/03 07:04:18;;;;;;;4.50;1.67;;;16.50;99.90;;;;;;5034356;28;20091;-66
2022/06/03 07:07:08;;;;;;;3.15;1.65;;;16.50;99.90;;;;;;5031412;28;20063;-67
2022/06/03 07:10:06;;;;;;;4.05;1.70;;;16.60;99.90;;;;;;5032744;28;20542;-66
2022/06/03 07:12:42;;;;;;;3.53;1.40;;;16.50;99.90;;;;;;5031117;28;20045;-66
2022/06/03 07:15:20;;;;;;;1.98;1.33;;;16.60;99.90;;;;;;5037200;28;20045;-65
2022/06/03 07:21:30;;;;;;;3.55;1.85;;;16.70;99.90;;;;;;5007448;28;20056;-67
2022/06/03 07:24:06;;;;;;;2.30;1.40;;;16.30;99.90;;;;;;5007405;28;20045;-66
2022/06/03 07:26:38;;;;;;;4.57;2.10;;;16.70;99.90;;;;;;5023886;28;20052;-67
2022/06/03 07:29:19;;;;;;;3.60;1.95;;;16.70;99.90;;;;;;5025229;28;21001;-66
2022/06/03 07:32:02;;;;;;;3.60;2.85;;;16.70;99.90;;;;;;5007283;28;20048;-67
2022/06/03 07:34:39;;;;;;;3.55;2.10;;;16.90;99.90;;;;;;5027342;28;20033;-67
2022/06/03 07:37:40;;;;;;;2.65;1.52;;;16.90;99.90;;;;;;5008742;28;21378;-67
2022/06/03 07:40:27;;;;;;;4.05;1.92;;;16.80;99.90;;;;;;5023330;28;20110;-67
2022/06/03 07:43:06;;;;;;;3.72;1.63;;;16.90;99.90;;;;;;5026214;28;20057;-66
2022/06/03 07:45:55;;;;;;;3.05;2.42;;;17.00;99.90;;;;;;5032345;28;20098;-68
2022/06/03 07:48:24;;;;;;;3.30;2.10;;;17.10;99.90;;;;;;5032649;28;20387;-66
2022/06/03 07:51:00;;;;;;;4.20;2.25;;;17.10;99.90;;;;;;5014438;28;20499;-66
2022/06/03 07:53:50;;;;;;;2.40;1.73;;;17.20;99.90;;;;;;5015332;28;20718;-65
2022/06/03 07:56:21;;;;;;;3.05;2.20;;;17.30;99.90;;;;;;5015522;28;20091;-68
2022/06/03 07:58:51;;;;;;;5.45;2.08;;;17.50;99.90;;;;;;5032966;28;20209;-66
2022/06/03 08:01:27;;;;;;;6.40;2.17;;;17.60;99.90;;;;;;5032101;28;20049;-66
2022/06/03 08:03:53;;;;;;;5.22;2.42;;;17.30;99.90;;;;;;5015563;28;20057;-67
2022/06/03 08:06:27;;;;;;;3.13;2.22;;;19.40;99.90;;;;;;5032613;28;20513;-66
2022/06/03 08:11:42;;;;;;;5.22;2.63;;;17.50;99.90;;;;;;5010027;28;20052;-67
2022/06/03 08:14:08;;;;;;;5.45;2.45;;;17.50;99.90;;;;;;5032479;28;20076;-67
2022/06/03 08:16:39;;;;;;;4.05;2.35;;;17.80;99.90;;;;;;5013590;28;20115;-67
2022/06/03 08:19:08;;;;;;;6.00;1.98;;;17.60;99.90;;;;;;5015220;28;20606;-67
2022/06/03 08:21:43;;;;;;;5.90;2.20;;;17.80;99.90;;;;;;5013131;28;20087;-67
2022/06/03 08:24:21;;;;;;;3.53;1.73;;;17.80;99.90;;;;;;5013959;28;20399;-68
2022/06/03 08:26:51;;;;;;;2.70;1.85;;;19.40;99.90;;;;;;5032197;28;20525;-67
2022/06/03 08:29:35;;;;;;;5.63;2.53;;;18.00;99.90;;;;;;5014660;28;20053;-68
2022/06/03 08:32:06;;;;;;;4.80;2.40;;;18.00;99.90;;;;;;5014472;28;20045;-66
2022/06/03 08:34:37;;;;;;;5.22;2.70;;;17.90;99.90;;;;;;5032533;28;20060;-65
2022/06/03 08:37:04;;;;;;;4.85;2.78;;;19.50;99.90;;;;;;5031044;28;20673;-66
2022/06/03 08:39:32;;;;;;;3.45;1.88;;;18.00;99.90;;;;;;5014849;28;20057;-66
2022/06/03 08:42:21;;;;;;;7.75;3.00;;;19.70;99.90;;;;;;5032971;28;20395;-65
2022/06/03 08:45:07;;;;;;;5.60;2.67;;;18.20;99.90;;;;;;5032556;28;20072;-68
2022/06/03 08:47:58;;;;;;;3.58;2.58;;;18.30;99.90;;;;;;5032433;28;20069;-66
2022/06/03 08:50:27;;;;;;;3.67;2.83;;;18.10;99.90;;;;;;5031418;28;20056;-65
2022/06/03 08:53:07;;;;;;;5.35;2.65;;;19.10;99.90;;;;;;5032745;28;20215;-65
2022/06/03 08:56:00;;;;;;;3.63;2.47;;;17.90;99.90;;;;;;5030857;28;20065;-67
2022/06/03 08:58:50;;;;;;;5.55;2.55;;;18.20;99.90;;;;;;5013617;28;20063;-70
2022/06/03 09:01:58;;;;;;;3.28;2.13;;;18.30;99.90;;;;;;5031648;28;20041;-65
2022/06/03 09:04:28;;;;;;;5.00;2.30;;;18.30;99.90;;;;;;5032234;28;20059;-68
2022/06/03 09:07:24;;;;;;;4.45;2.58;;;18.40;99.90;;;;;;5031417;28;20044;-66
2022/06/03 09:10:11;;;;;;;3.13;2.25;;;18.40;99.90;;;;;;4998612;28;20487;-67
2022/06/03 09:13:21;;;;;;;3.42;2.47;;;18.40;99.90;;;;;;5012765;28;20103;-66
2022/06/03 09:15:49;;;;;;;2.83;2.30;;;18.60;99.90;;;;;;5032068;28;20049;-66
2022/06/03 09:18:30;;;;;;;5.78;2.65;;;19.90;99.90;;;;;;5014913;28;20517;-66
2022/06/03 09:21:06;;;;;;;4.55;2.70;;;19.10;99.90;;;;;;5035829;28;20107;-66
2022/06/03 09:23:41;;;;;;;4.28;2.25;;;20.00;99.90;;;;;;5036311;28;20059;-66
2022/06/03 09:26:17;;;;;;;3.95;2.25;;;19.20;99.90;;;;;;5017389;28;20047;-66
2022/06/03 09:28:43;;;;;;;5.38;2.67;;;19.10;99.90;;;;;;5018445;28;20052;-66
2022/06/03 09:31:12;;;;;;;3.58;2.13;;;19.00;99.90;;;;;;5035355;28;20048;-66
2022/06/03 09:33:39;;;;;;;5.30;2.20;;;19.60;99.90;;;;;;5035752;28;20044;-66
2022/06/03 09:36:13;;;;;;;4.18;1.88;;;19.90;99.90;;;;;;5017278;28;20141;-66
2022/06/03 09:38:53;;;;;;;2.78;1.70;;;19.10;99.90;;;;;;5018255;28;20052;-66
2022/06/03 09:41:23;;;;;;;3.67;2.33;;;19.00;99.90;;;;;;5014945;28;20059;-66
2022/06/03 09:43:53;;;;;;;4.55;2.65;;;19.10;99.90;;;;;;5033832;28;20069;-66
2022/06/03 09:46:21;;;;;;;5.30;2.40;;;19.90;99.90;;;;;;5033000;28;20880;-67
2022/06/03 09:48:48;;;;;;;3.08;2.17;;;19.50;99.90;;;;;;5016146;28;20057;-66
2022/06/03 09:51:55;;;;;;;4.75;2.30;;;20.40;99.90;;;;;;5013383;28;20569;-66
2022/06/03 09:54:14;;;;;;;4.93;2.25;;;19.40;99.90;;;;;;5015224;28;20075;-66
2022/06/03 09:56:40;;;;;;;2.72;1.90;;;20.90;99.90;;;;;;5032001;28;20049;-66
2022/06/03 09:59:09;;;;;;;4.82;2.03;;;19.50;99.90;;;;;;5015292;28;20502;-66
2022/06/03 10:01:35;;;;;;;3.75;2.15;;;19.60;99.90;;;;;;5014802;28;20080;-66
2022/06/03 10:04:06;;;;;;;5.75;2.75;;;20.80;99.90;;;;;;5032459;28;20141;-66
2022/06/03 10:06:48;;;;;;;3.92;2.08;;;19.60;99.90;;;;;;5028676;28;20045;-66
2022/06/03 10:15:37;;;;;;;3.42;1.58;;;19.50;99.90;;;;;;5015557;28;20964;-67
2022/06/03 10:17:32;;;;;;;5.28;3.15;;;19.70;99.90;;;;;;5014491;28;20053;-67
2022/06/03 10:19:58;;;;;;;3.65;1.60;;;19.60;99.90;;;;;;5013139;28;20136;-67
2022/06/03 10:22:24;;;;;;;2.85;1.80;;;20.70;99.90;;;;;;5009961;28;20049;-67
2022/06/03 10:24:50;;;;;;;3.03;1.55;;;21.00;99.90;;;;;;5029045;28;20037;-67
2022/06/03 10:27:18;;;;;;;4.20;1.60;;;20.00;99.90;;;;;;5030568;28;20041;-67
2022/06/03 10:29:49;;;;;;;5.22;1.85;;;21.50;99.90;;;;;;5013072;28;20052;-67
2022/06/03 10:32:17;;;;;;;5.20;2.15;;;20.10;99.90;;;;;;5010804;28;20054;-66
2022/06/03 10:34:44;;;;;;;5.97;2.65;;;20.00;99.90;;;;;;4995542;28;20094;-66
2022/06/03 10:37:15;;;;;;;4.65;2.00;;;19.90;99.90;;;;;;5027042;28;20447;-67
2022/06/03 10:39:43;;;;;;;3.30;1.88;;;21.90;99.90;;;;;;5014221;28;21053;-67
2022/06/03 10:42:17;;;;;;;3.20;1.92;;;21.40;99.90;;;;;;5032110;28;20465;-67
2022/06/03 10:44:46;;;;;;;3.40;1.80;;;20.90;99.90;;;;;;5010853;28;20504;-67
2022/06/03 10:47:20;;;;;;;2.75;1.42;;;21.50;99.90;;;;;;5008188;28;20494;-66
2022/06/03 10:49:52;;;;;;;3.72;1.90;;;20.30;99.90;;;;;;5030069;28;20059;-67
2022/06/03 11:01:26;;;;;;;3.53;2.13;;;20.70;99.90;;;;;;5015009;28;20167;-65
2022/06/03 11:03:53;;;;;;;4.60;2.30;;;20.50;99.90;;;;;;5015994;28;20057;-68
2022/06/03 11:06:25;;;;;;;5.03;1.70;;;20.70;99.90;;;;;;5033651;28;20414;-67
2022/06/03 11:08:59;;;;;;;2.03;1.27;;;21.90;99.90;;;;;;5016243;28;20552;-68
2022/06/03 11:11:39;;;;;;;3.03;1.85;;;20.70;99.90;;;;;;5033789;28;20048;-66
2022/06/03 11:14:41;;;;;;;4.43;2.10;;;20.50;99.90;;;;;;5033402;28;20143;-69
2022/06/03 11:17:20;;;;;;;4.57;1.77;;;20.50;99.90;;;;;;5015830;28;20195;-66
2022/06/03 11:19:56;;;;;;;2.40;1.98;;;21.20;99.90;;;;;;5033539;28;20053;-66
2022/06/03 11:22:34;;;;;;;3.20;1.65;;;20.90;99.90;;;;;;5013948;28;20192;-66
2022/06/03 11:25:12;;;;;;;3.42;1.92;;;20.70;99.90;;;;;;5034481;28;20773;-66
2022/06/03 11:27:59;;;;;;;4.72;1.55;;;20.90;99.90;;;;;;5013459;28;21457;-66
2022/06/03 11:30:51;;;;;;;2.33;1.70;;;20.70;99.90;;;;;;5015032;28;20090;-67
2022/06/03 11:33:30;;;;;;;3.53;1.60;;;20.70;99.90;;;;;;5031852;28;20045;-66
2022/06/03 11:36:04;;;;;;;4.30;1.73;;;20.80;99.90;;;;;;5032924;28;20045;-68
2022/06/03 11:38:35;;;;;;;3.22;1.60;;;20.90;99.90;;;;;;5034022;28;20107;-67
2022/06/03 11:41:09;;;;;;;2.70;1.42;;;21.00;99.90;;;;;;5015028;28;20056;-66
2022/06/03 11:43:48;;;;;;;3.90;1.58;;;20.70;99.90;;;;;;5015116;28;20048;-66
2022/06/03 11:46:36;;;;;;;3.08;1.48;;;21.30;99.90;;;;;;5032865;28;20045;-64
2022/06/03 11:49:03;;;;;;;5.93;2.17;;;21.30;99.90;;;;;;5033181;28;20037;-67
2022/06/03 11:51:29;;;;;;;4.47;1.50;;;21.00;99.90;;;;;;5033028;28;20090;-66
2022/06/03 11:53:55;;;;;;;3.85;1.98;;;21.10;99.90;;;;;;5032778;28;20528;-66
2022/06/03 11:56:25;;;;;;;7.95;2.47;;;20.70;99.90;;;;;;5031624;28;20053;-64
2022/06/03 11:58:58;;;;;;;3.28;2.10;;;21.50;99.90;;;;;;5033402;28;20049;-66
2022/06/03 12:01:43;;;;;;;4.43;1.67;;;20.80;99.90;;;;;;5014071;28;20441;-65
2022/06/03 12:04:37;;;;;;;2.22;1.33;;;21.00;99.90;;;;;;5014364;28;20127;-66
2022/06/03 12:07:25;;;;;;;2.20;1.50;;;20.90;99.90;;;;;;5032308;28;20156;-66
2022/06/03 12:10:10;;;;;;;3.08;1.92;;;20.80;99.90;;;;;;5032948;28;20051;-64
2022/06/03 12:15:35;;;;;;;2.35;1.73;;;21.00;99.90;;;;;;5032912;28;20159;-67
2022/06/03 12:18:06;;;;;;;3.33;1.50;;;21.50;99.90;;;;;;4997446;28;20060;-67
2022/06/03 12:20:32;;;;;;;2.55;1.35;;;20.60;99.90;;;;;;5033321;28;20056;-66
2022/06/03 12:23:13;;;;;;;2.88;1.40;;;20.90;99.90;;;;;;5031940;28;20098;-66
2022/06/03 12:25:43;;;;;;;4.10;1.50;;;21.00;99.90;;;;;;5032921;28;20076;-66
2022/06/03 12:28:38;;;;;;;5.72;1.90;;;21.30;99.90;;;;;;5013800;28;20514;-67
2022/06/03 12:31:19;;;;;;;3.78;1.30;;;21.20;99.90;;;;;;5015250;28;20053;-64
2022/06/03 12:34:04;;;;;;;2.72;1.15;;;21.10;99.90;;;;;;4997560;28;20103;-66
2022/06/03 12:36:50;;;;;;;2.85;1.10;;;21.50;99.90;;;;;;5014095;28;20052;-64
2022/06/03 12:39:23;;;;;;;3.33;1.20;;;21.40;99.90;;;;;;5034173;28;20045;-66
2022/06/03 12:41:49;;;;;;;4.10;1.63;;;21.00;99.90;;;;;;5014390;28;20097;-66
2022/06/03 12:44:43;;;;;;;2.70;1.70;;;21.20;99.90;;;;;;5033985;28;20426;-66
2022/06/03 12:47:36;;;;;;;2.17;1.70;;;21.10;99.90;;;;;;5014040;28;20486;-66
2022/06/03 12:50:05;;;;;;;3.05;1.90;;;21.40;99.90;;;;;;5031065;28;20052;-68
2022/06/03 12:52:31;;;;;;;6.38;1.90;;;21.20;99.90;;;;;;5014059;28;20568;-67
2022/06/03 12:55:05;;;;;;;3.03;1.92;;;21.60;99.90;;;;;;5018828;28;20094;-67
2022/06/03 12:57:50;;;;;;;5.40;1.52;;;20.80;99.90;;;;;;5035730;28;20053;-68
2022/06/03 13:00:19;;;;;;;3.65;1.20;;;20.90;99.90;;;;;;5018602;28;20082;-68
2022/06/03 13:02:51;;;;;;;4.38;1.50;;;21.30;99.90;;;;;;5017161;28;20048;-66
2022/06/03 13:05:51;;;;;;;1.80;1.13;;;20.90;99.90;;;;;;5017379;28;20056;-65
2022/06/03 13:08:29;;;;;;;3.03;1.35;;;21.10;99.90;;;;;;5011980;28;20085;-66
2022/06/03 13:11:15;;;;;;;4.18;2.20;;;21.20;99.90;;;;;;5036808;28;20048;-69
2022/06/03 13:14:05;;;;;;;2.55;1.25;;;21.10;99.90;;;;;;5018661;28;20642;-68
2022/06/03 13:16:37;;;;;;;4.75;1.95;;;21.10;99.90;;;;;;5018162;28;20658;-68
2022/06/03 13:19:12;;;;;;;2.72;1.45;;;21.20;99.90;;;;;;5018845;28;20537;-67
2022/06/03 13:21:56;;;;;;;;;;;21.90;99.90;;;;;;5016228;28;20139;-68
2022/06/03 13:24:24;;;;;;;4.65;1.35;;;20.90;99.90;;;;;;5037435;28;20010;-67
2022/06/03 13:27:04;;;;;;;4.60;1.25;;;21.00;99.90;;;;;;5016687;28;20498;-64
2022/06/03 13:29:44;;;;;;;3.65;1.70;;;21.10;99.90;;;;;;5035553;28;20611;-65
2022/06/03 13:32:36;;;;;;;1.73;1.15;;;22.60;99.90;;;;;;5017107;28;20037;-66
2022/06/03 13:35:30;;;;;;;2.42;1.10;;;21.20;99.90;;;;;;5035744;28;20128;-64
2022/06/03 13:37:55;;;;;;;3.90;1.33;;;20.00;99.90;;;;;;5016622;28;20556;-65
2022/06/03 13:40:24;;;;;;;2.63;1.20;;;21.30;99.90;;;;;;5015807;28;20041;-65
2022/06/03 13:42:58;;;;;;;2.90;1.00;;;21.40;99.90;;;;;;5017686;28;20711;-65
2022/06/03 13:45:43;;;;;;;;;;;21.20;99.90;;;;;;5018487;28;20049;-65
2022/06/03 13:48:28;;;;;;;1.92;1.20;;;21.10;99.90;;;;;;5018253;28;20278;-66
2022/06/03 13:50:53;;;;;;;4.60;1.55;;;20.90;99.90;;;;;;5029476;28;20095;-64
2022/06/03 13:53:30;;;;;;;2.05;1.10;;;21.00;99.90;;;;;;5013132;28;20160;-66
2022/06/03 13:56:03;;;;;;;4.43;1.17;;;21.10;99.90;;;;;;5030448;28;20506;-65
2022/06/03 13:58:42;;;;;;;3.40;1.30;;;21.00;99.90;;;;;;5001433;28;20098;-65
2022/06/03 14:01:28;;;;;;;3.13;1.67;;;21.10;99.90;;;;;;5008364;28;20049;-66
2022/06/03 14:04:07;;;;;;;1.83;0.93;;;21.10;99.90;;;;;;5006543;28;20100;-64
2022/06/03 14:06:40;;;;;;;2.92;1.00;;;21.20;99.90;;;;;;5002767;28;20056;-63
2022/06/03 14:09:27;;;;;;;1.70;1.02;;;22.30;99.90;;;;;;5003402;28;20049;-64
2022/06/03 14:12:10;;;;;;;2.10;1.25;;;21.10;99.90;;;;;;5022056;28;21798;-63
2022/06/03 14:14:48;;;;;;;4.18;1.25;;;21.40;99.90;;;;;;5021470;28;20052;-64
2022/06/03 14:17:29;;;;;;;3.20;1.35;;;21.00;99.90;;;;;;5004148;28;20044;-64
2022/06/03 14:20:14;;;;;;;2.28;0.98;;;20.80;99.90;;;;;;5003094;28;20049;-63
2022/06/03 14:22:43;;;;;;;3.58;1.35;;;21.10;99.90;;;;;;5003022;28;20178;-63
2022/06/03 14:25:28;;;;;;;4.50;1.33;;;21.10;99.90;;;;;;5020835;28;20087;-65
2022/06/03 14:28:14;;;;;;;2.15;1.10;;;21.10;99.90;;;;;;5019452;28;20087;-66
2022/06/03 14:31:00;;;;;;;2.85;0.90;;;21.10;99.90;;;;;;5003687;28;20470;-67
2022/06/03 14:33:31;;;;;;;1.88;1.10;;;21.20;99.90;;;;;;5001850;28;20090;-65
2022/06/03 14:36:00;;;;;;;3.15;0.90;;;22.20;99.90;;;;;;4987386;28;20554;-67
2022/06/03 14:38:45;;;;;;;3.42;1.05;;;22.20;99.90;;;;;;4999132;28;20081;-65